Time;durP1;ratioP1;P1;durP2;ratioP2;P2;SDS_P1;SDS_P2;PMS_P1;PMS_P2;Temp;Humidity;BMP_temperature;BMP_pressure;BME280_temperature;BME280_humidity;BME280_pressure;Samples;Min_cycle;Max_cycle;Signal;HPM_P1;HPM_P2
2022/08/13 00:01:26;;;;;;;;;7.75;7.00;;;28.38;97516.00;;;;119073;1189;25649;-61
2022/08/13 00:04:01;;;;;;;;;7.50;7.50;;;28.36;97517.73;;;;119093;1188;24970;-61
2022/08/13 00:09:22;;;;;;;;;9.67;8.67;;;28.35;97518.00;;;;119086;1189;25065;-65
2022/08/13 00:15:14;;;;;;;;;5.00;5.00;;;28.35;97509.36;;;;119042;1189;25803;-67
2022/08/13 00:17:48;;;;;;;;;8.50;8.25;;;28.28;97513.73;;;;119048;1189;26077;-63
2022/08/13 00:20:39;;;;;;;;;8.50;7.25;;;28.27;97514.40;;;;119073;1187;25226;-61
2022/08/13 00:23:10;;;;;;;;;10.75;8.25;;;28.27;97514.49;;;;119054;1188;25502;-62
2022/08/13 00:25:56;;;;;;;;;10.00;8.50;;;28.27;97511.91;;;;119083;1188;25350;-62
2022/08/13 00:28:28;;;;;;;;;8.25;8.00;;;28.25;97511.48;;;;119066;1189;24706;-63
2022/08/13 00:30:59;;;;;;;;;6.75;5.75;;;28.19;97513.59;;;;119071;1187;24943;-67
2022/08/13 00:33:27;;;;;;;;;9.00;8.00;;;28.14;97516.17;;;;119072;1189;25957;-64
2022/08/13 00:36:17;;;;;;;;;9.25;9.25;;;28.15;97516.33;;;;119078;1189;24840;-67
2022/08/13 00:39:05;;;;;;;;;7.75;7.75;;;28.18;97511.70;;;;119042;1189;24840;-62
2022/08/13 00:41:42;;;;;;;;;5.50;5.50;;;28.16;97513.52;;;;119132;1188;25293;-63
2022/08/13 00:44:31;;;;;;;;;7.50;7.50;;;28.16;97515.98;;;;119133;1188;25473;-60
2022/08/13 00:49:50;;;;;;;;;9.25;8.25;;;28.10;97517.42;;;;119137;1188;25995;-65
2022/08/13 00:52:32;;;;;;;;;7.00;7.00;;;28.06;97514.48;;;;119036;1188;24964;-62
2022/08/13 00:55:03;;;;;;;;;7.33;7.33;;;28.05;97514.17;;;;119063;1188;25704;-63
2022/08/13 00:57:35;;;;;;;;;8.25;6.50;;;28.03;97515.73;;;;119148;1189;25250;-66
2022/08/13 01:00:11;;;;;;;;;8.25;7.75;;;28.00;97518.79;;;;119157;1187;24990;-63
2022/08/13 01:02:40;;;;;;;;;8.25;8.25;;;27.99;97518.34;;;;119182;1188;25293;-64
2022/08/13 01:05:24;;;;;;;;;8.33;8.33;;;28.00;97517.63;;;;119145;1187;26078;-63
2022/08/13 01:07:59;;;;;;;;;6.50;6.50;;;28.02;97517.36;;;;119151;1188;25226;-66
2022/08/13 01:10:27;;;;;;;;;9.50;8.25;;;28.00;97512.55;;;;119007;1190;25487;-66
2022/08/13 01:12:55;;;;;;;;;9.75;9.75;;;27.96;97509.64;;;;119139;1188;24795;-61
2022/08/13 01:15:24;;;;;;;;;7.00;7.00;;;27.93;97507.58;;;;119064;1189;25629;-64
2022/08/13 01:18:17;;;;;;;;;5.75;5.75;;;27.97;97506.70;;;;119165;1188;25265;-62
2022/08/13 01:20:58;;;;;;;;;9.00;6.75;;;27.98;97501.53;;;;119175;1187;25928;-64
2022/08/13 01:23:28;;;;;;;;;7.75;7.00;;;28.00;97497.73;;;;119189;1188;25932;-65
2022/08/13 01:26:07;;;;;;;;;8.75;8.75;;;28.02;97494.91;;;;119159;1188;25581;-62
2022/08/13 01:28:38;;;;;;;;;10.50;9.25;;;28.00;97493.00;;;;119153;1187;25260;-65
2022/08/13 01:31:12;;;;;;;;;5.00;4.00;;;27.98;97493.23;;;;119155;1188;25591;-65
2022/08/13 01:33:47;;;;;;;;;10.00;9.00;;;27.95;97488.42;;;;119160;1188;24778;-61
2022/08/13 01:36:21;;;;;;;;;10.25;9.75;;;27.95;97488.05;;;;119170;1188;25810;-62
2022/08/13 01:39:10;;;;;;;;;9.75;9.00;;;27.99;97484.59;;;;119199;1187;24892;-62
2022/08/13 01:41:48;;;;;;;;;8.00;7.00;;;27.98;97481.98;;;;119144;1187;25402;-60
2022/08/13 01:44:24;;;;;;;;;8.00;8.00;;;27.95;97484.94;;;;119166;1187;25540;-60
2022/08/13 01:52:41;;;;;;;;;11.25;10.00;;;27.86;97481.04;;;;118972;1190;25882;-60
2022/08/13 01:55:10;;;;;;;;;3.00;2.25;;;27.79;97480.37;;;;118967;1188;25609;-61
2022/08/13 01:57:44;;;;;;;;;9.25;8.25;;;27.77;97479.31;;;;119092;1188;25177;-60
2022/08/13 02:00:21;;;;;;;;;15.00;9.75;;;27.77;97476.27;;;;119005;1190;25114;-61
2022/08/13 02:02:55;;;;;;;;;9.00;7.50;;;27.77;97476.14;;;;119123;1189;25441;-60
2022/08/13 02:05:26;;;;;;;;;7.33;7.33;;;27.74;97470.59;;;;118948;1190;25640;-60
2022/08/13 02:08:22;;;;;;;;;6.75;6.75;;;27.78;97471.64;;;;119099;1188;25620;-60
2022/08/13 02:10:53;;;;;;;;;5.25;5.25;;;27.81;97470.37;;;;119056;1189;26689;-61
2022/08/13 02:13:27;;;;;;;;;9.50;7.75;;;27.79;97464.02;;;;119140;1188;25842;-59
2022/08/13 02:16:06;;;;;;;;;9.67;9.00;;;27.80;97456.14;;;;119147;1188;26077;-61
2022/08/13 02:18:34;;;;;;;;;9.50;9.50;;;27.78;97455.98;;;;119158;1188;25078;-61
2022/08/13 02:21:02;;;;;;;;;9.50;7.75;;;27.76;97459.29;;;;119044;1190;25009;-61
2022/08/13 02:23:58;;;;;;;;;8.75;8.75;;;27.74;97456.22;;;;119117;1189;25646;-61
2022/08/13 02:26:32;;;;;;;;;7.33;7.33;;;27.77;97456.15;;;;119109;1188;25652;-61
2022/08/13 02:29:03;;;;;;;;;12.25;9.25;;;27.74;97459.41;;;;119147;1189;25075;-61
2022/08/13 02:31:34;;;;;;;;;10.00;9.00;;;27.71;97454.02;;;;119047;1190;25372;-64
2022/08/13 02:34:22;;;;;;;;;9.33;9.33;;;27.75;97455.00;;;;119126;1189;26299;-63
2022/08/13 02:36:52;;;;;;;;;8.50;8.50;;;27.73;97451.26;;;;119112;1187;25681;-62
2022/08/13 02:39:40;;;;;;;;;10.50;9.00;;;27.71;97450.11;;;;118983;1190;25509;-62
2022/08/13 02:42:10;;;;;;;;;10.25;10.25;;;27.70;97446.60;;;;118998;1189;25616;-64
2022/08/13 02:44:48;;;;;;;;;8.25;8.25;;;27.66;97446.55;;;;118986;1190;27034;-63
2022/08/13 02:47:20;;;;;;;;;12.33;9.00;;;27.66;97444.41;;;;119072;1187;25534;-67
2022/08/13 02:50:01;;;;;;;;;8.00;8.00;;;27.65;97440.67;;;;119089;1188;25162;-62
2022/08/13 02:52:30;;;;;;;;;8.75;8.50;;;27.63;97438.94;;;;119088;1189;25445;-64
2022/08/13 02:54:58;;;;;;;;;9.25;7.50;;;27.60;97441.84;;;;119032;1189;25368;-65
2022/08/13 02:57:26;;;;;;;;;11.50;7.50;;;27.55;97441.13;;;;119060;1189;24860;-66
2022/08/13 02:59:58;;;;;;;;;9.25;8.00;;;27.55;97442.54;;;;118978;1190;25463;-61
2022/08/13 03:02:38;;;;;;;;;10.75;7.25;;;27.56;97441.57;;;;119065;1189;25887;-61
2022/08/13 03:05:09;;;;;;;;;8.25;8.25;;;27.55;97442.07;;;;119095;1189;25632;-60
2022/08/13 03:07:47;;;;;;;;;10.25;9.00;;;27.55;97439.63;;;;119049;1189;25164;-61
2022/08/13 03:10:23;;;;;;;;;12.00;9.25;;;27.57;97436.77;;;;119052;1189;24919;-61
2022/08/13 03:13:20;;;;;;;;;12.75;10.75;;;27.61;97432.45;;;;119088;1189;25775;-61
2022/08/13 03:15:53;;;;;;;;;11.25;11.00;;;27.61;97432.19;;;;119079;1188;26117;-61
2022/08/13 03:18:31;;;;;;;;;10.50;9.00;;;27.60;97434.38;;;;119059;1189;24862;-61
2022/08/13 03:21:23;;;;;;;;;13.25;9.50;;;27.61;97433.95;;;;119141;1187;26040;-61
2022/08/13 03:24:17;;;;;;;;;9.33;8.33;;;27.66;97431.80;;;;119149;1187;25602;-61
2022/08/13 03:26:59;;;;;;;;;9.75;8.50;;;27.66;97432.67;;;;119132;1188;24957;-61
2022/08/13 03:29:28;;;;;;;;;11.75;10.75;;;27.63;97432.98;;;;119153;1187;25564;-61
2022/08/13 03:32:19;;;;;;;;;9.25;8.50;;;27.61;97433.54;;;;119163;1188;24977;-59
2022/08/13 03:34:59;;;;;;;;;10.00;10.00;;;27.61;97437.52;;;;119090;1188;26187;-61
2022/08/13 03:37:39;;;;;;;;;9.50;8.75;;;27.60;97439.17;;;;119093;1187;25610;-60
2022/08/13 03:40:11;;;;;;;;;8.25;8.00;;;27.57;97441.81;;;;119116;1188;25450;-61
2022/08/13 03:42:46;;;;;;;;;10.25;10.25;;;27.54;97441.58;;;;119107;1188;25345;-61
2022/08/13 03:45:24;;;;;;;;;8.50;8.00;;;27.51;97443.52;;;;119083;1189;25704;-62
2022/08/13 03:47:55;;;;;;;;;9.50;9.50;;;27.49;97443.61;;;;119087;1188;25478;-62
2022/08/13 03:50:24;;;;;;;;;9.00;7.50;;;27.47;97442.50;;;;119084;1188;25503;-61
2022/08/13 03:52:52;;;;;;;;;9.75;9.75;;;27.43;97444.77;;;;119082;1187;25819;-61
2022/08/13 03:55:22;;;;;;;;;12.50;10.00;;;27.40;97443.56;;;;119085;1188;25126;-61
2022/08/13 03:57:50;;;;;;;;;10.50;9.50;;;27.38;97443.95;;;;118999;1189;25565;-61
2022/08/13 04:00:33;;;;;;;;;9.25;9.25;;;27.39;97447.23;;;;119071;1188;25264;-65
2022/08/13 04:03:16;;;;;;;;;9.00;8.50;;;27.34;97446.83;;;;119086;1189;25365;-63
2022/08/13 04:05:45;;;;;;;;;8.00;7.75;;;27.38;97444.52;;;;119099;1188;24704;-64
2022/08/13 04:08:29;;;;;;;;;8.75;8.25;;;27.48;97445.87;;;;119057;1188;26079;-64
2022/08/13 04:10:57;;;;;;;;;8.00;7.75;;;27.54;97451.60;;;;119037;1189;25870;-65
2022/08/13 04:13:26;;;;;;;;;10.75;10.25;;;27.57;97451.57;;;;119082;1189;25424;-66
2022/08/13 04:16:18;;;;;;;;;9.25;9.25;;;27.65;97453.20;;;;119116;1188;25176;-67
2022/08/13 04:18:48;;;;;;;;;7.00;7.00;;;27.70;97449.20;;;;119138;1187;25914;-66
2022/08/13 04:21:18;;;;;;;;;5.75;5.75;;;27.74;97446.89;;;;119123;1188;25175;-65
2022/08/13 04:23:51;;;;;;;;;6.50;6.00;;;27.77;97445.98;;;;119140;1187;25841;-65
2022/08/13 04:26:24;;;;;;;;;12.00;10.50;;;27.81;97441.04;;;;119133;1187;24854;-65
2022/08/13 04:29:04;;;;;;;;;8.25;7.25;;;27.88;97436.75;;;;119158;1188;26178;-67
2022/08/13 04:31:34;;;;;;;;;7.67;7.00;;;27.92;97431.83;;;;119170;1187;25571;-69
2022/08/13 04:34:23;;;;;;;;;4.33;4.33;;;28.00;97430.38;;;;119030;1190;25672;-66
2022/08/13 04:37:09;;;;;;;;;8.00;8.00;;;28.08;97432.06;;;;119021;1190;26332;-60
2022/08/13 04:39:50;;;;;;;;;9.25;8.00;;;28.19;97433.98;;;;119019;1189;24938;-60
2022/08/13 04:42:53;;;;;;;;;6.75;6.75;;;28.20;97430.35;;;;119133;1188;24895;-61
2022/08/13 04:45:23;;;;;;;;;8.00;8.00;;;28.22;97432.40;;;;119149;1189;25097;-61
2022/08/13 04:47:58;;;;;;;;;9.25;7.75;;;28.19;97430.04;;;;119032;1189;24843;-61
2022/08/13 04:50:31;;;;;;;;;13.50;8.50;;;28.19;97428.83;;;;119146;1189;25547;-61
2022/08/13 04:53:23;;;;;;;;;3.00;3.00;;;28.17;97428.83;;;;119139;1187;25613;-61
2022/08/13 04:55:52;;;;;;;;;10.00;6.33;;;28.21;97427.91;;;;119151;1188;25512;-62
2022/08/13 04:58:40;;;;;;;;;8.00;6.25;;;28.27;97427.59;;;;119148;1189;25428;-62
2022/08/13 05:01:11;;;;;;;;;9.25;7.75;;;28.26;97429.08;;;;119129;1188;25040;-62
2022/08/13 05:03:59;;;;;;;;;6.75;6.75;;;28.30;97428.86;;;;119144;1188;26161;-60
2022/08/13 05:06:47;;;;;;;;;8.50;7.75;;;28.35;97426.14;;;;119124;1187;26040;-63
2022/08/13 05:09:19;;;;;;;;;8.00;7.00;;;28.34;97422.65;;;;119117;1187;24896;-62
2022/08/13 05:11:58;;;;;;;;;9.75;8.00;;;28.34;97416.17;;;;119119;1187;26018;-62
2022/08/13 05:14:35;;;;;;;;;7.75;7.75;;;28.33;97413.52;;;;119080;1187;25002;-66
2022/08/13 05:17:04;;;;;;;;;8.25;8.00;;;28.31;97410.60;;;;119111;1187;25190;-63
2022/08/13 05:19:35;;;;;;;;;10.25;9.25;;;28.31;97407.36;;;;119111;1188;25149;-63
2022/08/13 05:22:06;;;;;;;;;8.25;8.25;;;28.30;97401.38;;;;119105;1187;25858;-62
2022/08/13 05:24:53;;;;;;;;;10.50;8.25;;;28.37;97398.67;;;;119031;1189;25739;-62
2022/08/13 05:27:42;;;;;;;;;9.00;8.75;;;28.46;97400.81;;;;119017;1189;25050;-61
2022/08/13 05:30:12;;;;;;;;;10.33;10.00;;;28.46;97398.52;;;;119030;1188;25216;-62
2022/08/13 05:33:00;;;;;;;;;9.25;9.25;;;28.46;97398.80;;;;119023;1190;25036;-62
2022/08/13 05:35:48;;;;;;;;;7.00;7.00;;;28.50;97397.90;;;;119025;1190;25521;-59
2022/08/13 05:38:36;;;;;;;;;8.00;8.00;;;28.55;97393.69;;;;119025;1190;25581;-59
2022/08/13 05:41:10;;;;;;;;;8.50;8.50;;;28.55;97390.31;;;;119041;1188;25275;-60
2022/08/13 05:43:40;;;;;;;;;12.00;10.25;;;28.53;97388.44;;;;119153;1188;25933;-59
2022/08/13 05:46:09;;;;;;;;;12.00;10.00;;;28.55;97390.00;;;;119213;1187;25646;-59
2022/08/13 05:48:42;;;;;;;;;15.75;13.50;;;28.52;97390.48;;;;119145;1189;26172;-61
2022/08/13 05:51:13;;;;;;;;;20.25;16.25;;;28.74;97390.30;;;;119028;1189;25734;-66
2022/08/13 05:53:41;;;;;;;;;24.50;17.00;;;28.68;97388.60;;;;119158;1188;25689;-66
2022/08/13 05:56:35;;;;;;;;;18.00;16.75;;;28.62;97387.54;;;;119159;1187;26404;-64
2022/08/13 05:59:04;;;;;;;;;22.00;14.50;;;28.58;97389.44;;;;119123;1188;25774;-63
2022/08/13 06:04:26;;;;;;;;;20.00;14.75;;;28.49;97386.62;;;;119016;1189;24833;-69
2022/08/13 06:07:13;;;;;;;;;21.00;17.00;;;28.55;97384.91;;;;119298;1187;24992;-74
2022/08/13 06:09:41;;;;;;;;;24.50;17.50;;;28.80;97383.93;;;;119389;1189;24869;-69
2022/08/13 06:12:09;;;;;;;;;29.50;18.00;;;29.30;97378.83;;;;119383;1188;25295;-65
2022/08/13 06:14:57;;;;;;;;;23.25;17.50;;;29.68;97380.43;;;;119557;1188;24838;-65
2022/08/13 06:17:26;;;;;;;;;28.00;18.00;;;29.95;97380.15;;;;119572;1188;24877;-65
2022/08/13 06:20:04;;;;;;;;;29.75;22.25;;;30.20;97384.08;;;;119567;1188;24936;-65
2022/08/13 06:22:37;;;;;;;;;33.25;19.50;;;30.35;97384.60;;;;119469;1188;24895;-64
2022/08/13 06:25:06;;;;;;;;;30.33;22.67;;;30.36;97387.55;;;;119027;1190;25568;-65
2022/08/13 06:27:38;;;;;;;;;31.25;21.25;;;29.90;97384.83;;;;119035;1189;24807;-64
2022/08/13 06:30:27;;;;;;;;;31.00;22.00;;;29.57;97388.02;;;;119012;1189;25796;-64
2022/08/13 06:33:01;;;;;;;;;27.00;23.25;;;29.35;97384.46;;;;119043;1188;24749;-64
2022/08/13 06:35:51;;;;;;;;;29.50;24.25;;;29.22;97381.61;;;;119133;1187;25810;-64
2022/08/13 06:38:30;;;;;;;;;32.75;24.50;;;29.10;97379.35;;;;119130;1188;26252;-64
2022/08/13 06:41:03;;;;;;;;;30.75;21.25;;;28.98;97377.84;;;;119109;1189;24883;-64
2022/08/13 06:43:42;;;;;;;;;26.00;20.75;;;28.89;97378.02;;;;118981;1190;24872;-65
2022/08/13 06:46:17;;;;;;;;;31.00;22.00;;;28.84;97379.10;;;;119046;1189;24979;-67
2022/08/13 06:48:59;;;;;;;;;28.25;18.00;;;28.81;97380.70;;;;119027;1189;24875;-66
2022/08/13 06:51:31;;;;;;;;;26.50;22.00;;;28.78;97379.10;;;;119041;1190;25633;-66
2022/08/13 06:54:10;;;;;;;;;30.50;19.25;;;28.75;97378.59;;;;119134;1189;24822;-70
2022/08/13 06:56:58;;;;;;;;;27.50;19.25;;;28.76;97380.14;;;;119118;1189;26166;-68
2022/08/13 06:59:48;;;;;;;;;21.50;16.75;;;28.79;97380.84;;;;119099;1189;25299;-67
2022/08/13 07:02:37;;;;;;;;;28.50;19.50;;;28.82;97383.92;;;;119051;1189;25608;-66
2022/08/13 07:05:06;;;;;;;;;29.50;19.25;;;28.77;97378.83;;;;119098;1188;26360;-67
2022/08/13 07:07:45;;;;;;;;;27.00;19.75;;;28.72;97378.08;;;;119045;1189;25677;-68
2022/08/13 07:10:16;;;;;;;;;30.00;18.50;;;28.68;97382.70;;;;119027;1189;25851;-71
2022/08/13 07:12:44;;;;;;;;;28.00;20.33;;;28.65;97381.71;;;;119077;1188;25254;-66
2022/08/13 07:15:17;;;;;;;;;28.00;20.25;;;28.61;97381.86;;;;119073;1189;25443;-69
2022/08/13 07:18:06;;;;;;;;;36.25;19.00;;;28.66;97377.42;;;;119050;1188;25474;-70
2022/08/13 07:20:36;;;;;;;;;24.50;19.00;;;28.67;97377.12;;;;119074;1188;25552;-67
2022/08/13 07:23:05;;;;;;;;;23.50;18.50;;;28.64;97379.91;;;;119085;1187;25031;-65
2022/08/13 07:25:56;;;;;;;;;27.75;17.00;;;28.68;97377.73;;;;119098;1189;24758;-67
2022/08/13 07:28:28;;;;;;;;;28.25;22.25;;;28.69;97375.63;;;;119126;1188;25482;-68
2022/08/13 07:31:19;;;;;;;;;24.33;21.00;;;28.72;97370.95;;;;119126;1188;25779;-68
2022/08/13 07:33:53;;;;;;;;;34.50;22.00;;;28.73;97371.04;;;;118999;1190;25057;-66
2022/08/13 07:36:29;;;;;;;;;24.25;19.25;;;28.71;97368.73;;;;119118;1187;25641;-64
2022/08/13 07:39:02;;;;;;;;;28.00;18.50;;;28.70;97370.95;;;;119153;1187;24758;-64
2022/08/13 07:41:40;;;;;;;;;28.25;18.00;;;28.69;97372.63;;;;119152;1188;26353;-64
2022/08/13 07:44:28;;;;;;;;;25.25;19.25;;;28.73;97371.75;;;;119150;1187;25993;-65
2022/08/13 07:46:57;;;;;;;;;22.75;14.50;;;28.72;97370.45;;;;119073;1187;25839;-64
2022/08/13 07:49:26;;;;;;;;;23.75;18.75;;;28.68;97370.05;;;;119043;1189;25216;-65
2022/08/13 07:52:15;;;;;;;;;33.67;19.00;;;28.70;97369.62;;;;119052;1189;25317;-65
2022/08/13 07:54:46;;;;;;;;;27.00;18.50;;;28.70;97369.55;;;;119110;1187;25200;-64
2022/08/13 07:57:20;;;;;;;;;28.50;19.50;;;28.69;97371.17;;;;119003;1189;24828;-64
2022/08/13 07:59:54;;;;;;;;;26.25;19.50;;;28.69;97366.05;;;;119045;1189;25563;-65
2022/08/13 08:02:43;;;;;;;;;27.00;20.25;;;28.73;97355.21;;;;119180;1189;25387;-65
2022/08/13 08:05:14;;;;;;;;;23.50;17.75;;;28.73;97350.08;;;;118987;1190;25976;-64
2022/08/13 08:07:50;;;;;;;;;25.50;22.75;;;28.71;97343.42;;;;119036;1190;25636;-65
2022/08/13 08:10:39;;;;;;;;;24.00;18.25;;;28.74;97342.33;;;;119164;1188;25788;-64
2022/08/13 08:13:09;;;;;;;;;20.33;18.33;;;28.74;97335.31;;;;119030;1189;25669;-68
2022/08/13 08:15:42;;;;;;;;;20.75;16.00;;;28.72;97337.29;;;;119169;1188;25723;-64
2022/08/13 08:18:32;;;;;;;;;26.00;19.25;;;28.76;97328.55;;;;119176;1187;26317;-64
2022/08/13 08:21:23;;;;;;;;;28.75;18.25;;;28.82;97328.05;;;;119048;1189;24874;-64
2022/08/13 08:24:13;;;;;;;;;20.25;17.00;;;28.87;97325.14;;;;119032;1189;25178;-64
2022/08/13 08:26:59;;;;;;;;;25.00;18.75;;;28.88;97323.24;;;;119040;1190;25694;-63
2022/08/13 08:29:28;;;;;;;;;20.00;16.75;;;28.84;97321.15;;;;119041;1190;25408;-64
2022/08/13 08:32:08;;;;;;;;;23.25;19.75;;;28.80;97317.72;;;;119036;1190;24802;-65
2022/08/13 08:34:46;;;;;;;;;20.50;17.25;;;28.77;97313.52;;;;119174;1188;24945;-65
2022/08/13 08:42:35;;;;;;;;;22.33;19.00;;;28.75;97309.10;;;;119181;1188;26174;-64
2022/08/13 08:43:16;;;;;;;;;24.00;17.50;;;28.87;97308.33;;;;119098;1189;25490;-65
2022/08/13 08:45:53;;;;;;;;;28.25;21.00;;;28.85;97304.54;;;;119049;1190;25586;-64
2022/08/13 08:48:42;;;;;;;;;30.00;19.75;;;28.86;97304.49;;;;119176;1187;24817;-64
2022/08/13 08:51:14;;;;;;;;;24.50;17.25;;;28.84;97303.30;;;;119048;1190;25326;-64
2022/08/13 08:53:49;;;;;;;;;29.75;23.50;;;28.80;97301.00;;;;119052;1189;25609;-64
2022/08/13 08:56:37;;;;;;;;;16.00;13.00;;;28.83;97299.18;;;;119164;1187;25355;-64
2022/08/13 08:59:25;;;;;;;;;18.00;16.25;;;28.85;97297.37;;;;119029;1190;25233;-64
2022/08/13 09:01:56;;;;;;;;;22.00;18.25;;;28.83;97296.56;;;;119166;1188;25501;-64
2022/08/13 09:04:29;;;;;;;;;22.00;18.50;;;28.78;97294.59;;;;119160;1189;25916;-66
2022/08/13 09:07:17;;;;;;;;;23.25;19.25;;;28.82;97296.34;;;;119158;1189;25660;-67
2022/08/13 09:09:56;;;;;;;;;24.75;20.50;;;28.82;97291.27;;;;119052;1188;26426;-65
2022/08/13 09:12:28;;;;;;;;;20.00;16.33;;;28.79;97288.70;;;;119149;1187;26350;-66
2022/08/13 09:14:57;;;;;;;;;24.75;19.50;;;28.75;97286.31;;;;119133;1189;25535;-70
2022/08/13 09:17:27;;;;;;;;;26.00;18.00;;;28.73;97283.16;;;;119058;1190;25187;-64
2022/08/13 09:20:14;;;;;;;;;22.00;16.75;;;28.76;97284.51;;;;119131;1188;25562;-64
2022/08/13 09:22:46;;;;;;;;;28.50;18.50;;;28.77;97279.61;;;;119139;1188;24940;-69
2022/08/13 09:25:26;;;;;;;;;24.00;18.50;;;28.77;97278.08;;;;119135;1189;25340;-65
2022/08/13 09:27:56;;;;;;;;;23.50;19.75;;;28.75;97270.06;;;;119035;1190;25511;-63
2022/08/13 09:30:41;;;;;;;;;23.75;18.75;;;28.78;97271.75;;;;119125;1188;26516;-63
2022/08/13 09:33:21;;;;;;;;;20.00;17.75;;;28.79;97267.48;;;;119154;1186;24812;-68
2022/08/13 09:36:10;;;;;;;;;20.50;19.00;;;28.85;97263.94;;;;119168;1187;25132;-65
2022/08/13 09:38:48;;;;;;;;;22.00;19.50;;;28.87;97262.64;;;;119158;1188;24780;-66
2022/08/13 09:41:28;;;;;;;;;23.50;17.25;;;28.84;97258.65;;;;119155;1187;25143;-67
2022/08/13 09:43:58;;;;;;;;;19.25;16.00;;;28.84;97262.27;;;;119146;1187;25603;-67
2022/08/13 09:46:26;;;;;;;;;23.25;19.25;;;28.82;97263.33;;;;119168;1187;26135;-67
2022/08/13 09:48:58;;;;;;;;;23.75;18.50;;;28.77;97262.73;;;;119038;1189;24989;-69
2022/08/13 09:51:31;;;;;;;;;21.25;15.00;;;28.75;97259.48;;;;119157;1187;24906;-65
2022/08/13 09:54:22;;;;;;;;;25.25;17.00;;;28.82;97259.67;;;;119043;1190;24977;-69
2022/08/13 09:56:58;;;;;;;;;18.50;15.50;;;28.84;97257.34;;;;119130;1188;25277;-67
2022/08/13 09:59:28;;;;;;;;;18.75;16.75;;;28.82;97259.33;;;;119039;1189;25411;-70
2022/08/13 10:02:12;;;;;;;;;23.00;17.25;;;28.81;97259.58;;;;119117;1188;25709;-66
2022/08/13 10:04:43;;;;;;;;;17.75;17.00;;;28.82;97256.70;;;;119148;1188;25445;-66
2022/08/13 10:07:14;;;;;;;;;20.00;16.25;;;28.79;97253.12;;;;119036;1190;26138;-66
2022/08/13 10:09:49;;;;;;;;;20.00;17.50;;;28.78;97246.54;;;;119125;1188;25765;-68
2022/08/13 10:12:37;;;;;;;;;18.00;13.75;;;28.85;97244.00;;;;119147;1188;25115;-68
2022/08/13 10:15:08;;;;;;;;;20.00;16.50;;;28.85;97242.40;;;;119144;1187;25745;-67
2022/08/13 10:17:58;;;;;;;;;17.00;14.50;;;28.86;97240.01;;;;119027;1188;25731;-68
2022/08/13 10:20:30;;;;;;;;;27.50;18.50;;;28.87;97240.29;;;;119135;1187;25891;-68
2022/08/13 10:22:58;;;;;;;;;24.00;19.25;;;28.83;97245.77;;;;119156;1188;25954;-65
2022/08/13 10:25:28;;;;;;;;;21.50;17.75;;;28.80;97248.79;;;;119166;1187;25577;-65
2022/08/13 10:28:16;;;;;;;;;22.50;17.00;;;28.83;97248.81;;;;119184;1188;24969;-65
2022/08/13 10:31:03;;;;;;;;;21.25;18.75;;;28.88;97248.18;;;;119146;1187;25047;-66
2022/08/13 10:33:54;;;;;;;;;24.75;17.75;;;28.92;97244.65;;;;119140;1186;25967;-65
2022/08/13 10:36:26;;;;;;;;;23.00;17.50;;;28.91;97242.62;;;;119161;1188;25296;-65
2022/08/13 10:39:05;;;;;;;;;24.00;18.50;;;28.90;97240.29;;;;119143;1188;25633;-65
2022/08/13 10:41:42;;;;;;;;;20.25;18.50;;;28.89;97238.86;;;;119097;1187;25502;-65
2022/08/13 10:44:31;;;;;;;;;19.50;17.50;;;28.94;97236.83;;;;119090;1187;25775;-65
2022/08/13 10:46:59;;;;;;;;;14.75;13.25;;;28.92;97233.93;;;;119147;1188;25145;-65
2022/08/13 10:49:29;;;;;;;;;20.75;16.25;;;28.88;97235.50;;;;119099;1188;24841;-66
2022/08/13 10:52:00;;;;;;;;;24.25;17.00;;;28.86;97233.15;;;;119141;1188;24942;-65
2022/08/13 10:54:33;;;;;;;;;23.75;17.50;;;28.85;97228.93;;;;119118;1188;25439;-66
2022/08/13 10:57:07;;;;;;;;;20.75;15.75;;;28.84;97227.05;;;;119149;1187;25878;-65
2022/08/13 10:59:40;;;;;;;;;18.50;10.75;;;28.85;97223.23;;;;119029;1189;25390;-68
2022/08/13 11:02:10;;;;;;;;;20.00;16.50;;;28.84;97221.05;;;;119090;1188;24854;-65
2022/08/13 11:04:47;;;;;;;;;17.50;16.50;;;28.85;97221.69;;;;119169;1188;25221;-65
2022/08/13 11:07:20;;;;;;;;;20.25;15.50;;;28.87;97217.44;;;;119131;1189;24899;-65
2022/08/13 11:09:49;;;;;;;;;23.00;17.50;;;28.85;97213.81;;;;119113;1189;25440;-68
2022/08/13 11:12:19;;;;;;;;;20.50;17.25;;;28.84;97211.01;;;;119115;1187;24977;-67
2022/08/13 11:14:49;;;;;;;;;21.50;16.25;;;28.83;97206.80;;;;119109;1188;27027;-65
2022/08/13 11:17:18;;;;;;;;;25.00;15.50;;;28.83;97198.36;;;;119036;1189;25576;-66
2022/08/13 11:20:13;;;;;;;;;18.75;17.50;;;28.88;97192.72;;;;119129;1189;25235;-65
2022/08/13 11:22:50;;;;;;;;;18.25;16.00;;;28.92;97189.55;;;;119082;1189;24995;-67
2022/08/13 11:25:19;;;;;;;;;17.50;16.00;;;28.90;97187.61;;;;119098;1189;25358;-66
2022/08/13 11:28:13;;;;;;;;;21.75;16.25;;;28.94;97186.04;;;;119096;1187;25290;-65
2022/08/13 11:30:51;;;;;;;;;14.50;14.50;;;28.96;97182.55;;;;119010;1188;24948;-64
2022/08/13 11:33:20;;;;;;;;;18.75;14.50;;;28.95;97179.24;;;;119059;1189;25214;-65
2022/08/13 11:36:09;;;;;;;;;20.75;16.50;;;28.99;97176.48;;;;119081;1189;25988;-65
2022/08/13 11:38:40;;;;;;;;;19.50;13.75;;;28.98;97172.45;;;;119085;1189;25187;-65
2022/08/13 11:41:08;;;;;;;;;19.25;15.75;;;28.95;97170.83;;;;119090;1189;25029;-65
2022/08/13 11:43:47;;;;;;;;;17.25;15.75;;;28.95;97167.34;;;;119098;1189;25822;-64
2022/08/13 11:46:25;;;;;;;;;18.75;15.00;;;28.96;97167.86;;;;119058;1189;25068;-64
2022/08/13 11:48:53;;;;;;;;;17.67;13.33;;;28.96;97167.46;;;;119086;1188;25244;-64
2022/08/13 11:51:41;;;;;;;;;16.50;14.25;;;28.99;97165.25;;;;119075;1188;26261;-64
2022/08/13 11:54:20;;;;;;;;;18.00;13.75;;;29.01;97165.50;;;;119088;1189;25840;-64
2022/08/13 11:57:05;;;;;;;;;18.50;16.25;;;29.03;97158.39;;;;119072;1189;27234;-64
2022/08/13 11:59:40;;;;;;;;;20.00;14.75;;;29.04;97155.67;;;;119089;1187;25655;-64
2022/08/13 12:02:17;;;;;;;;;17.00;15.33;;;29.05;97152.73;;;;119045;1189;24915;-67
2022/08/13 12:04:55;;;;;;;;;21.25;16.00;;;29.04;97150.19;;;;119093;1188;25307;-66
2022/08/13 12:07:25;;;;;;;;;18.25;13.00;;;29.02;97152.10;;;;119012;1188;25690;-67
2022/08/13 12:09:54;;;;;;;;;17.50;16.75;;;28.99;97146.95;;;;119104;1189;26242;-66
2022/08/13 12:12:27;;;;;;;;;19.50;15.50;;;28.98;97150.33;;;;119107;1189;25891;-65
2022/08/13 12:14:59;;;;;;;;;12.25;12.25;;;28.98;97146.73;;;;119060;1189;26455;-69
2022/08/13 12:17:27;;;;;;;;;20.25;14.00;;;28.99;97147.96;;;;119077;1187;25659;-65
2022/08/13 12:20:21;;;;;;;;;14.25;11.75;;;29.05;97146.84;;;;119070;1189;25557;-65
2022/08/13 12:22:58;;;;;;;;;12.75;9.00;;;29.11;97144.18;;;;119144;1187;25292;-65
2022/08/13 12:25:28;;;;;;;;;16.75;16.75;;;29.09;97141.04;;;;119168;1188;25426;-65
2022/08/13 12:28:22;;;;;;;;;20.50;16.25;;;29.13;97138.15;;;;119104;1189;26349;-65
2022/08/13 12:31:00;;;;;;;;;15.00;12.75;;;29.14;97137.95;;;;119064;1188;25491;-67
2022/08/13 12:33:34;;;;;;;;;15.75;13.50;;;29.13;97135.27;;;;119064;1187;25342;-69
2022/08/13 12:36:10;;;;;;;;;14.75;12.50;;;29.11;97135.14;;;;119139;1188;25814;-66
2022/08/13 12:38:46;;;;;;;;;13.75;11.00;;;29.12;97134.16;;;;119162;1187;25648;-66
2022/08/13 12:41:29;;;;;;;;;17.25;15.25;;;29.15;97133.57;;;;119175;1187;25245;-65
2022/08/13 12:44:09;;;;;;;;;17.75;11.75;;;29.17;97130.21;;;;119172;1188;26074;-65
2022/08/13 12:46:57;;;;;;;;;13.50;13.50;;;29.22;97129.56;;;;119151;1187;24882;-63
2022/08/13 12:49:29;;;;;;;;;14.00;13.00;;;29.21;97128.95;;;;119124;1187;25566;-63
2022/08/13 12:52:17;;;;;;;;;17.25;15.25;;;29.23;97128.30;;;;119114;1187;25609;-63
2022/08/13 12:55:00;;;;;;;;;16.25;13.25;;;29.25;97127.59;;;;119007;1190;25265;-63
2022/08/13 12:57:42;;;;;;;;;14.25;12.00;;;29.25;97125.75;;;;119107;1188;24846;-63
2022/08/13 13:00:31;;;;;;;;;16.00;13.50;;;29.28;97123.54;;;;119135;1188;25467;-65
2022/08/13 13:03:00;;;;;;;;;16.25;15.25;;;29.26;97117.88;;;;119153;1187;25914;-65
2022/08/13 13:05:33;;;;;;;;;16.75;10.75;;;29.22;97119.77;;;;119121;1188;25675;-65